Thunder radar more information blitzortung!


Radar de pluja more information rain snow radar


Visita la nostra xarxa de llocs de meteo:

Template documentation
and downloads

And another site



No particular awareness of the weather is required.    There are no Weather-warnings

Pagina Historial Weather Underground text

Diari Resum February 7, 2018 Unitats:  Tant    Imperial   Mètric
« Previous Dia
SegĂźent Dia »
Diari Setmana Mensual Anual Personalitzada
  Maxima: Minima: Media:
Temperatura: TemperatureC °F /  -17.8 °C 0.8 °F /  -17.3 °C 6.1 °F /  -14.4 °C
Punt de rosada: DewpointC °F /  -17.8 °C -7.0 °F /  -21.7 °C -3.1 °F /  -19.5 °C
Humitat: Humidity % 42 % 52 %
Wind Speed: WindSpeedKMH mph /  0 km/h - 4.7 mph /  7.6 km/h
RĂ fegues de vent: WindSpeedGustKMH mph /  0 km/h - -
Vent:- - SSW
Pression baro: PressurehPa in /  0 hPa 1006.0 in /  34063.2 hPa -
Precipitacions: 0.0 in /  0 mm    
Historical Graphs
 
 
Dades de taula per February 7, 2018
Temps Temperatura Punt de rosada Pression baro Vent Wind Speed RĂ fegues de vent Humitat Rainfall Rate (Hourly)
TemperatureC °F /  -17.8 °C DewpointC °F /  -17.8 °C PressurehPa in /  0 hPa Calm     Humidity % HourlyPrecipMM in /  0 mm
00:03 4.8 °F /  -15.1 °C -0.4 °F /  -18 °C 1007.0 in /  34097 hPa SE 5.6 mph /  9 km/h 5.6 mph /  9 km/h 69 % 0.0 in /  0 mm
00:08 4.8 °F /  -15.1 °C -0.4 °F /  -18 °C 1007.0 in /  34097 hPa SE 3.7 mph /  6 km/h 3.7 mph /  6 km/h 69 % 0.0 in /  0 mm
00:13 4.7 °F /  -15.2 °C -0.5 °F /  -18.1 °C 1007.0 in /  34097 hPa NW 1.9 mph /  3.1 km/h 1.9 mph /  3.1 km/h 69 % 0.0 in /  0 mm
00:18 4.7 °F /  -15.2 °C -0.5 °F /  -18.1 °C 1007.0 in /  34097 hPa WNW 3.5 mph /  5.6 km/h   69 % 0.0 in /  0 mm
00:23 4.7 °F /  -15.2 °C -0.5 °F /  -18.1 °C 1007.0 in /  34097 hPa West 5.3 mph /  8.5 km/h 5.3 mph /  8.5 km/h 69 % 0.0 in /  0 mm
00:28 4.7 °F /  -15.2 °C -0.5 °F /  -18.1 °C 1006.0 in /  34063.2 hPa West 5.6 mph /  9 km/h 5.6 mph /  9 km/h 69 % 0.0 in /  0 mm
00:33 4.7 °F /  -15.2 °C -0.5 °F /  -18.1 °C 1006.0 in /  34063.2 hPa West 3.7 mph /  6 km/h 3.7 mph /  6 km/h 69 % 0.0 in /  0 mm
00:38 4.7 °F /  -15.2 °C -0.5 °F /  -18.1 °C 1006.0 in /  34063.2 hPa Calm     69 % 0.0 in /  0 mm
00:43 4.7 °F /  -15.2 °C -0.5 °F /  -18.1 °C 1007.0 in /  34097 hPa West 1.9 mph /  3.1 km/h 1.9 mph /  3.1 km/h 69 % 0.0 in /  0 mm
00:48 4.7 °F /  -15.2 °C -0.5 °F /  -18.1 °C 1007.0 in /  34097 hPa West 5.8 mph /  9.3 km/h 5.8 mph /  9.3 km/h 69 % 0.0 in /  0 mm
00:53 4.7 °F /  -15.2 °C -0.5 °F /  -18.1 °C 1007.0 in /  34097 hPa West 3.7 mph /  6 km/h 3.7 mph /  6 km/h 69 % 0.0 in /  0 mm
00:58 4.7 °F /  -15.2 °C -0.7 °F /  -18.2 °C 1006.0 in /  34063.2 hPa NNW 3.7 mph /  6 km/h 3.7 mph /  6 km/h 68 % 0.0 in /  0 mm
02:25 0.8 °F /  -17.3 °C -4.8 °F /  -20.4 °C 1010.0 in /  34198.6 hPa Calm     66 % 0.0 in /  0 mm
02:35 1.1 °F /  -17.2 °C -4.3 °F /  -20.2 °C 1010.0 in /  34198.6 hPa West 1.6 mph /  2.6 km/h 1.6 mph /  2.6 km/h 67 % 0.0 in /  0 mm
02:45 1.6 °F /  -16.9 °C -3.9 °F /  -19.9 °C 1010.0 in /  34198.6 hPa Calm     67 % 0.0 in /  0 mm
02:55 2.1 °F /  -16.6 °C -3.4 °F /  -19.7 °C 1010.0 in /  34198.6 hPa WNW 1.6 mph /  2.6 km/h 3.2 mph /  5.1 km/h 67 % 0.0 in /  0 mm
03:05 2.3 °F /  -16.5 °C -3.6 °F /  -19.8 °C 1010.0 in /  34198.6 hPa NNE 1.6 mph /  2.6 km/h 3.2 mph /  5.1 km/h 65 % 0.0 in /  0 mm
03:15 2.7 °F /  -16.3 °C -3.4 °F /  -19.7 °C 1010.0 in /  34198.6 hPa NE 3.2 mph /  5.1 km/h 3.2 mph /  5.1 km/h 64 % 0.0 in /  0 mm
03:25 3.1 °F /  -16.1 °C -3.1 °F /  -19.5 °C 1010.0 in /  34198.6 hPa Calm   3.2 mph /  5.1 km/h 64 % 0.0 in /  0 mm
03:35 3.0 °F /  -16.1 °C -3.4 °F /  -19.7 °C 1010.0 in /  34198.6 hPa ENE 3.2 mph /  5.1 km/h 4.8 mph /  7.7 km/h 63 % 0.0 in /  0 mm
03:45 3.1 °F /  -16.1 °C -3.5 °F /  -19.7 °C 1010.0 in /  34198.6 hPa NE 3.2 mph /  5.1 km/h 4.8 mph /  7.7 km/h 62 % 0.0 in /  0 mm
03:55 3.1 °F /  -16.1 °C -3.7 °F /  -19.8 °C 1010.7 in /  34222.3 hPa ENE 4.8 mph /  7.7 km/h 4.8 mph /  7.7 km/h 61 % 0.0 in /  0 mm
04:05 3.5 °F /  -15.8 °C -3.1 °F /  -19.5 °C 1010.7 in /  34222.3 hPa ENE 3.2 mph /  5.1 km/h 4.8 mph /  7.7 km/h 62 % 0.0 in /  0 mm
04:15 3.7 °F /  -15.7 °C -3.1 °F /  -19.5 °C 1010.7 in /  34222.3 hPa ENE 3.2 mph /  5.1 km/h 4.8 mph /  7.7 km/h 61 % 0.0 in /  0 mm
04:25 4.3 °F /  -15.4 °C -2.6 °F /  -19.2 °C 1010.7 in /  34222.3 hPa East 3.2 mph /  5.1 km/h 3.2 mph /  5.1 km/h 61 % 0.0 in /  0 mm
04:35 4.8 °F /  -15.1 °C -2.1 °F /  -18.9 °C 1011.7 in /  34256.2 hPa ENE 4.8 mph /  7.7 km/h 4.8 mph /  7.7 km/h 61 % 0.0 in /  0 mm
10:38 4.5 °F /  -15.3 °C -2.6 °F /  -19.2 °C 1011.7 in /  34256.2 hPa NE 3.9 mph /  6.3 km/h 3.9 mph /  6.3 km/h 60 % 0.0 in /  0 mm
10:43 4.8 °F /  -15.1 °C -2.3 °F /  -19.1 °C 1011.7 in /  34256.2 hPa ESE 3.7 mph /  6 km/h 3.7 mph /  6 km/h 60 % 0.0 in /  0 mm
10:48 5.2 °F /  -14.9 °C -1.9 °F /  -18.8 °C 1011.7 in /  34256.2 hPa West 3.9 mph /  6.3 km/h 3.9 mph /  6.3 km/h 60 % 0.0 in /  0 mm
10:53 5.4 °F /  -14.8 °C -1.5 °F /  -18.6 °C 1011.7 in /  34256.2 hPa NW 3.7 mph /  6 km/h 3.7 mph /  6 km/h 61 % 0.0 in /  0 mm
10:58 5.3 °F /  -14.8 °C -2.1 °F /  -18.9 °C 1011.7 in /  34256.2 hPa ENE 3.7 mph /  6 km/h 3.7 mph /  6 km/h 59 % 0.0 in /  0 mm
11:03 5.4 °F /  -14.8 °C -2.0 °F /  -18.9 °C 1011.7 in /  34256.2 hPa ENE 3.7 mph /  6 km/h 3.7 mph /  6 km/h 59 % 0.0 in /  0 mm
11:08 5.4 °F /  -14.8 °C -1.8 °F /  -18.8 °C 1011.7 in /  34256.2 hPa WNW 5.6 mph /  9 km/h 5.6 mph /  9 km/h 60 % 0.0 in /  0 mm
11:13 5.5 °F /  -14.7 °C -1.9 °F /  -18.8 °C 1011.7 in /  34256.2 hPa ENE 3.7 mph /  6 km/h 3.7 mph /  6 km/h 59 % 0.0 in /  0 mm
11:18 5.5 °F /  -14.7 °C -2.1 °F /  -18.9 °C 1011.7 in /  34256.2 hPa NE 3.9 mph /  6.3 km/h 3.9 mph /  6.3 km/h 58 % 0.0 in /  0 mm
11:23 5.6 °F /  -14.7 °C -1.8 °F /  -18.8 °C 1011.7 in /  34256.2 hPa NNE 7.4 mph /  11.9 km/h 7.4 mph /  11.9 km/h 59 % 0.0 in /  0 mm
11:28 5.7 °F /  -14.6 °C -1.9 °F /  -18.8 °C 1011.7 in /  34256.2 hPa NE 3.2 mph /  5.1 km/h 3.2 mph /  5.1 km/h 58 % 0.0 in /  0 mm
11:33 5.9 °F /  -14.5 °C -1.7 °F /  -18.7 °C 1011.7 in /  34256.2 hPa NE 5.6 mph /  9 km/h 5.6 mph /  9 km/h 58 % 0.0 in /  0 mm
11:38 6.2 °F /  -14.3 °C -1.4 °F /  -18.6 °C 1011.7 in /  34256.2 hPa NNE 3.7 mph /  6 km/h 3.7 mph /  6 km/h 58 % 0.0 in /  0 mm
11:43 6.3 °F /  -14.3 °C -1.4 °F /  -18.6 °C 1011.7 in /  34256.2 hPa ENE 4.2 mph /  6.8 km/h 4.2 mph /  6.8 km/h 58 % 0.0 in /  0 mm
11:48 6.0 °F /  -14.4 °C -2.1 °F /  -18.9 °C 1011.7 in /  34256.2 hPa NE 7.4 mph /  11.9 km/h 7.4 mph /  11.9 km/h 56 % 0.0 in /  0 mm
11:53 6.4 °F /  -14.2 °C -1.5 °F /  -18.6 °C 1011.7 in /  34256.2 hPa NE 7.4 mph /  11.9 km/h 7.4 mph /  11.9 km/h 57 % 0.0 in /  0 mm
11:58 6.5 °F /  -14.2 °C -1.4 °F /  -18.6 °C 1011.7 in /  34256.2 hPa NNE 3.7 mph /  6 km/h 3.9 mph /  6.3 km/h 57 % 0.0 in /  0 mm
12:03 6.7 °F /  -14.1 °C -1.2 °F /  -18.4 °C 1011.7 in /  34256.2 hPa NNE 6.1 mph /  9.8 km/h 6.1 mph /  9.8 km/h 57 % 0.0 in /  0 mm
12:08 6.7 °F /  -14.1 °C -1.4 °F /  -18.6 °C 1011.7 in /  34256.2 hPa NE 5.6 mph /  9 km/h 5.6 mph /  9 km/h 56 % 0.0 in /  0 mm
12:13 6.8 °F /  -14 °C -1.4 °F /  -18.6 °C 1011.7 in /  34256.2 hPa ENE 3.9 mph /  6.3 km/h   56 % 0.0 in /  0 mm
12:18 7.1 °F /  -13.8 °C -1.3 °F /  -18.5 °C 1011.7 in /  34256.2 hPa ENE 3.9 mph /  6.3 km/h 3.9 mph /  6.3 km/h 55 % 0.0 in /  0 mm
12:23 7.3 °F /  -13.7 °C -0.9 °F /  -18.3 °C 1011.7 in /  34256.2 hPa North 3.7 mph /  6 km/h 3.7 mph /  6 km/h 56 % 0.0 in /  0 mm
12:28 7.4 °F /  -13.7 °C -1.1 °F /  -18.4 °C 1011.7 in /  34256.2 hPa NW 4.2 mph /  6.8 km/h 4.2 mph /  6.8 km/h 55 % 0.0 in /  0 mm
12:33 7.5 °F /  -13.6 °C -0.9 °F /  -18.3 °C 1011.7 in /  34256.2 hPa WSW 3.7 mph /  6 km/h 3.7 mph /  6 km/h 55 % 0.0 in /  0 mm
12:38 7.9 °F /  -13.4 °C -0.3 °F /  -17.9 °C 1011.7 in /  34256.2 hPa SW 6.1 mph /  9.8 km/h 6.1 mph /  9.8 km/h 56 % 0.0 in /  0 mm
12:43 8.2 °F /  -13.2 °C -0.3 °F /  -17.9 °C 1011.7 in /  34256.2 hPa ESE 6.4 mph /  10.3 km/h 6.4 mph /  10.3 km/h 55 % 0.0 in /  0 mm
12:48 8.2 °F /  -13.2 °C -0.6 °F /  -18.1 °C 1011.7 in /  34256.2 hPa SSE 5.6 mph /  9 km/h 5.6 mph /  9 km/h 54 % 0.0 in /  0 mm
12:53 8.2 °F /  -13.2 °C -0.3 °F /  -17.9 °C 1011.7 in /  34256.2 hPa SW 3.7 mph /  6 km/h 3.7 mph /  6 km/h 55 % 0.0 in /  0 mm
12:58 8.1 °F /  -13.3 °C -0.7 °F /  -18.2 °C 1011.7 in /  34256.2 hPa NE 7.4 mph /  11.9 km/h 7.4 mph /  11.9 km/h 54 % 0.0 in /  0 mm
13:03 8.3 °F /  -13.2 °C -0.7 °F /  -18.2 °C 1011.7 in /  34256.2 hPa ENE 4.7 mph /  7.6 km/h 4.7 mph /  7.6 km/h 53 % 0.0 in /  0 mm
13:08 8.7 °F /  -12.9 °C -0.3 °F /  -17.9 °C 1011.7 in /  34256.2 hPa SSE 4.2 mph /  6.8 km/h 4.2 mph /  6.8 km/h 53 % 0.0 in /  0 mm
13:13 8.6 °F /  -13 °C -0.4 °F /  -18 °C 1011.7 in /  34256.2 hPa ENE 5.6 mph /  9 km/h 5.6 mph /  9 km/h 53 % 0.0 in /  0 mm
13:18 8.8 °F /  -12.9 °C -0.3 °F /  -17.9 °C 1011.7 in /  34256.2 hPa WSW 1.9 mph /  3.1 km/h 2.3 mph /  3.7 km/h 53 % 0.0 in /  0 mm
13:23 9.5 °F /  -12.5 °C 0.7 °F /  -17.4 °C 1011.7 in /  34256.2 hPa SW 6.9 mph /  11.1 km/h 6.9 mph /  11.1 km/h 54 % 0.0 in /  0 mm
13:28 9.3 °F /  -12.6 °C 0.4 °F /  -17.6 °C 1011.7 in /  34256.2 hPa WSW 10.0 mph /  16.1 km/h 10.0 mph /  16.1 km/h 54 % 0.0 in /  0 mm
13:33 9.2 °F /  -12.7 °C 0.1 °F /  -17.7 °C 1011.7 in /  34256.2 hPa West 7.4 mph /  11.9 km/h 7.4 mph /  11.9 km/h 53 % 0.0 in /  0 mm
13:38 9.3 °F /  -12.6 °C -0.1 °F /  -17.8 °C 1011.7 in /  34256.2 hPa WSW 11.1 mph /  17.9 km/h 11.1 mph /  17.9 km/h 52 % 0.0 in /  0 mm
13:43 9.4 °F /  -12.6 °C 0.3 °F /  -17.6 °C 1011.7 in /  34256.2 hPa WSW 9.3 mph /  15 km/h 9.3 mph /  15 km/h 53 % 0.0 in /  0 mm
13:48 9.4 °F /  -12.6 °C 0.0 °F /  -17.8 °C 1011.7 in /  34256.2 hPa WSW 5.6 mph /  9 km/h 5.6 mph /  9 km/h 52 % 0.0 in /  0 mm
13:53 9.4 °F /  -12.6 °C 0.0 °F /  -17.8 °C 1011.7 in /  34256.2 hPa SW 9.3 mph /  15 km/h 9.3 mph /  15 km/h 52 % 0.0 in /  0 mm
13:58 9.6 °F /  -12.4 °C -0.1 °F /  -17.8 °C 1011.7 in /  34256.2 hPa SW 7.4 mph /  11.9 km/h 7.4 mph /  11.9 km/h 51 % 0.0 in /  0 mm
14:03 9.7 °F /  -12.4 °C 0.3 °F /  -17.6 °C 1011.7 in /  34256.2 hPa SSW 9.3 mph /  15 km/h 9.3 mph /  15 km/h 52 % 0.0 in /  0 mm
14:08 9.6 °F /  -12.4 °C -0.1 °F /  -17.8 °C 1011.7 in /  34256.2 hPa WNW 9.3 mph /  15 km/h 9.3 mph /  15 km/h 51 % 0.0 in /  0 mm
14:13 9.4 °F /  -12.6 °C -0.2 °F /  -17.9 °C 1010.7 in /  34222.3 hPa SW 13.0 mph /  20.9 km/h 13.0 mph /  20.9 km/h 51 % 0.0 in /  0 mm
14:18 9.4 °F /  -12.6 °C -0.2 °F /  -17.9 °C 1010.7 in /  34222.3 hPa WSW 7.4 mph /  11.9 km/h 7.4 mph /  11.9 km/h 51 % 0.0 in /  0 mm
14:23 9.2 °F /  -12.7 °C -0.4 °F /  -18 °C 1010.7 in /  34222.3 hPa WSW 11.1 mph /  17.9 km/h 11.1 mph /  17.9 km/h 51 % 0.0 in /  0 mm
14:28 9.2 °F /  -12.7 °C -0.4 °F /  -18 °C 1011.7 in /  34256.2 hPa WNW 9.3 mph /  15 km/h 9.3 mph /  15 km/h 51 % 0.0 in /  0 mm
14:33 9.4 °F /  -12.6 °C -0.2 °F /  -17.9 °C 1011.7 in /  34256.2 hPa West 9.3 mph /  15 km/h 9.3 mph /  15 km/h 51 % 0.0 in /  0 mm
14:38 9.5 °F /  -12.5 °C -0.2 °F /  -17.9 °C 1011.7 in /  34256.2 hPa WNW 3.7 mph /  6 km/h 3.7 mph /  6 km/h 51 % 0.0 in /  0 mm
14:43 9.5 °F /  -12.5 °C -0.2 °F /  -17.9 °C 1011.7 in /  34256.2 hPa NNW 7.4 mph /  11.9 km/h 7.4 mph /  11.9 km/h 51 % 0.0 in /  0 mm
14:48 9.6 °F /  -12.4 °C -0.1 °F /  -17.8 °C 1011.7 in /  34256.2 hPa SW 5.6 mph /  9 km/h 5.8 mph /  9.3 km/h 51 % 0.0 in /  0 mm
14:53 9.9 °F /  -12.3 °C 0.2 °F /  -17.7 °C 1011.7 in /  34256.2 hPa SW 4.7 mph /  7.6 km/h 4.7 mph /  7.6 km/h 51 % 0.0 in /  0 mm
14:58 10.0 °F /  -12.2 °C 0.3 °F /  -17.6 °C 1011.7 in /  34256.2 hPa WSW 7.4 mph /  11.9 km/h 7.4 mph /  11.9 km/h 51 % 0.0 in /  0 mm
15:03 9.9 °F /  -12.3 °C 0.2 °F /  -17.7 °C 1011.7 in /  34256.2 hPa West 11.1 mph /  17.9 km/h 11.1 mph /  17.9 km/h 51 % 0.0 in /  0 mm
15:08 9.9 °F /  -12.3 °C -0.1 °F /  -17.8 °C 1011.7 in /  34256.2 hPa SSW 5.6 mph /  9 km/h 5.6 mph /  9 km/h 50 % 0.0 in /  0 mm
15:13 10.0 °F /  -12.2 °C 0.1 °F /  -17.7 °C 1011.7 in /  34256.2 hPa WNW 7.4 mph /  11.9 km/h 7.4 mph /  11.9 km/h 50 % 0.0 in /  0 mm
15:18 10.2 °F /  -12.1 °C 0.2 °F /  -17.7 °C 1011.7 in /  34256.2 hPa WSW 7.4 mph /  11.9 km/h 7.4 mph /  11.9 km/h 50 % 0.0 in /  0 mm
15:23 10.1 °F /  -12.2 °C -0.2 °F /  -17.9 °C 1011.7 in /  34256.2 hPa West 7.4 mph /  11.9 km/h 7.4 mph /  11.9 km/h 49 % 0.0 in /  0 mm
15:28 10.1 °F /  -12.2 °C -0.2 °F /  -17.9 °C 1011.7 in /  34256.2 hPa WNW 11.1 mph /  17.9 km/h 11.1 mph /  17.9 km/h 49 % 0.0 in /  0 mm
15:33 10.1 °F /  -12.2 °C -0.4 °F /  -18 °C 1011.7 in /  34256.2 hPa WNW 14.8 mph /  23.8 km/h 14.8 mph /  23.8 km/h 48 % 0.0 in /  0 mm
15:38 10.0 °F /  -12.2 °C -0.5 °F /  -18.1 °C 1011.7 in /  34256.2 hPa NW 9.3 mph /  15 km/h 9.3 mph /  15 km/h 48 % 0.0 in /  0 mm
15:43 10.1 °F /  -12.2 °C -0.4 °F /  -18 °C 1011.7 in /  34256.2 hPa WNW 6.4 mph /  10.3 km/h 6.4 mph /  10.3 km/h 48 % 0.0 in /  0 mm
15:48 9.7 °F /  -12.4 °C -1.4 °F /  -18.6 °C 1011.7 in /  34256.2 hPa West 16.7 mph /  26.9 km/h 16.7 mph /  26.9 km/h 46 % 0.0 in /  0 mm
15:53 9.7 °F /  -12.4 °C -1.4 °F /  -18.6 °C 1011.7 in /  34256.2 hPa West 10.0 mph /  16.1 km/h 10.0 mph /  16.1 km/h 46 % 0.0 in /  0 mm
15:58 9.7 °F /  -12.4 °C -1.4 °F /  -18.6 °C 1011.7 in /  34256.2 hPa WSW 5.6 mph /  9 km/h 5.6 mph /  9 km/h 46 % 0.0 in /  0 mm
16:03 9.8 °F /  -12.3 °C -1.0 °F /  -18.3 °C 1011.7 in /  34256.2 hPa SW 7.6 mph /  12.2 km/h 7.6 mph /  12.2 km/h 47 % 0.0 in /  0 mm
16:08 9.8 °F /  -12.3 °C -1.3 °F /  -18.5 °C 1011.7 in /  34256.2 hPa WNW 9.3 mph /  15 km/h 9.3 mph /  15 km/h 46 % 0.0 in /  0 mm
16:13 9.9 °F /  -12.3 °C -0.9 °F /  -18.3 °C 1011.7 in /  34256.2 hPa WSW 10.0 mph /  16.1 km/h 10.0 mph /  16.1 km/h 47 % 0.0 in /  0 mm
16:18 9.7 °F /  -12.4 °C -1.4 °F /  -18.6 °C 1011.7 in /  34256.2 hPa WNW 13.0 mph /  20.9 km/h 13.0 mph /  20.9 km/h 46 % 0.0 in /  0 mm
16:23 9.6 °F /  -12.4 °C -1.8 °F /  -18.8 °C 1011.7 in /  34256.2 hPa WSW 9.3 mph /  15 km/h 9.3 mph /  15 km/h 45 % 0.0 in /  0 mm
16:28 9.5 °F /  -12.5 °C -1.8 °F /  -18.8 °C 1010.7 in /  34222.3 hPa West 5.6 mph /  9 km/h 5.6 mph /  9 km/h 45 % 0.0 in /  0 mm
16:33 9.5 °F /  -12.5 °C -1.8 °F /  -18.8 °C 1010.7 in /  34222.3 hPa NW 6.9 mph /  11.1 km/h 6.9 mph /  11.1 km/h 45 % 0.0 in /  0 mm
16:38 9.5 °F /  -12.5 °C -1.8 °F /  -18.8 °C 1010.7 in /  34222.3 hPa West 9.3 mph /  15 km/h 9.3 mph /  15 km/h 45 % 0.0 in /  0 mm
16:43 9.4 °F /  -12.6 °C -1.9 °F /  -18.8 °C 1011.7 in /  34256.2 hPa WSW 11.9 mph /  19.2 km/h 11.9 mph /  19.2 km/h 45 % 0.0 in /  0 mm
16:48 9.4 °F /  -12.6 °C -1.9 °F /  -18.8 °C 1011.7 in /  34256.2 hPa West 11.1 mph /  17.9 km/h 11.1 mph /  17.9 km/h 45 % 0.0 in /  0 mm
16:53 9.4 °F /  -12.6 °C -1.9 °F /  -18.8 °C 1011.7 in /  34256.2 hPa WNW 6.4 mph /  10.3 km/h 6.4 mph /  10.3 km/h 45 % 0.0 in /  0 mm
16:58 9.4 °F /  -12.6 °C -2.3 °F /  -19.1 °C 1011.7 in /  34256.2 hPa West 11.1 mph /  17.9 km/h 11.1 mph /  17.9 km/h 44 % 0.0 in /  0 mm
17:03 9.3 °F /  -12.6 °C -2.3 °F /  -19.1 °C 1011.7 in /  34256.2 hPa WNW 5.6 mph /  9 km/h 5.6 mph /  9 km/h 44 % 0.0 in /  0 mm
17:08 9.2 °F /  -12.7 °C -2.4 °F /  -19.1 °C 1011.7 in /  34256.2 hPa WSW 7.4 mph /  11.9 km/h 7.4 mph /  11.9 km/h 44 % 0.0 in /  0 mm
17:13 9.1 °F /  -12.7 °C -2.6 °F /  -19.2 °C 1011.7 in /  34256.2 hPa South 13.0 mph /  20.9 km/h 13.0 mph /  20.9 km/h 44 % 0.0 in /  0 mm
17:18 9.1 °F /  -12.7 °C -2.6 °F /  -19.2 °C 1011.7 in /  34256.2 hPa WSW 3.7 mph /  6 km/h 3.7 mph /  6 km/h 44 % 0.0 in /  0 mm
17:23 8.9 °F /  -12.8 °C -3.0 °F /  -19.4 °C 1011.7 in /  34256.2 hPa WSW 16.7 mph /  26.9 km/h 16.7 mph /  26.9 km/h 43 % 0.0 in /  0 mm
17:28 8.7 °F /  -12.9 °C -3.2 °F /  -19.6 °C 1011.7 in /  34256.2 hPa West 9.3 mph /  15 km/h 9.3 mph /  15 km/h 43 % 0.0 in /  0 mm
17:33 8.5 °F /  -13.1 °C -3.4 °F /  -19.7 °C 1011.7 in /  34256.2 hPa NW 9.3 mph /  15 km/h 9.3 mph /  15 km/h 43 % 0.0 in /  0 mm
17:38 8.4 °F /  -13.1 °C -3.5 °F /  -19.7 °C 1011.7 in /  34256.2 hPa West 9.3 mph /  15 km/h 9.3 mph /  15 km/h 43 % 0.0 in /  0 mm
17:43 8.2 °F /  -13.2 °C -3.9 °F /  -19.9 °C 1011.7 in /  34256.2 hPa SW 7.4 mph /  11.9 km/h 7.4 mph /  11.9 km/h 42 % 0.0 in /  0 mm
17:48 8.1 °F /  -13.3 °C -3.7 °F /  -19.8 °C 1011.7 in /  34256.2 hPa West 6.1 mph /  9.8 km/h 6.1 mph /  9.8 km/h 43 % 0.0 in /  0 mm
17:53 7.9 °F /  -13.4 °C -3.9 °F /  -19.9 °C 1011.7 in /  34256.2 hPa West 5.6 mph /  9 km/h 5.6 mph /  9 km/h 43 % 0.0 in /  0 mm
17:58 7.7 °F /  -13.5 °C -4.1 °F /  -20.1 °C 1012.8 in /  34293.4 hPa WSW 5.6 mph /  9 km/h 5.6 mph /  9 km/h 43 % 0.0 in /  0 mm
18:03 7.4 °F /  -13.7 °C -4.1 °F /  -20.1 °C 1012.8 in /  34293.4 hPa WSW 7.4 mph /  11.9 km/h 7.4 mph /  11.9 km/h 44 % 0.0 in /  0 mm
18:08 7.3 °F /  -13.7 °C -4.2 °F /  -20.1 °C 1012.8 in /  34293.4 hPa WSW 5.6 mph /  9 km/h 5.6 mph /  9 km/h 44 % 0.0 in /  0 mm
18:13 7.1 °F /  -13.8 °C -4.3 °F /  -20.2 °C 1012.8 in /  34293.4 hPa WNW 3.7 mph /  6 km/h 3.7 mph /  6 km/h 44 % 0.0 in /  0 mm
18:18 6.9 °F /  -13.9 °C -4.6 °F /  -20.3 °C 1012.8 in /  34293.4 hPa Calm     44 % 0.0 in /  0 mm
18:23 6.8 °F /  -14 °C -4.6 °F /  -20.3 °C 1012.8 in /  34293.4 hPa WSW 1.9 mph /  3.1 km/h   44 % 0.0 in /  0 mm
18:28 6.6 °F /  -14.1 °C -4.5 °F /  -20.3 °C 1012.8 in /  34293.4 hPa WSW 2.3 mph /  3.7 km/h   45 % 0.0 in /  0 mm
18:33 6.4 °F /  -14.2 °C -4.7 °F /  -20.4 °C 1012.8 in /  34293.4 hPa WSW 1.9 mph /  3.1 km/h   45 % 0.0 in /  0 mm
18:38 6.2 °F /  -14.3 °C -4.9 °F /  -20.5 °C 1012.8 in /  34293.4 hPa WSW 2.3 mph /  3.7 km/h 2.3 mph /  3.7 km/h 45 % 0.0 in /  0 mm
18:43 6.1 °F /  -14.4 °C -4.9 °F /  -20.5 °C 1013.8 in /  34327.3 hPa WSW 3.7 mph /  6 km/h 3.7 mph /  6 km/h 45 % 0.0 in /  0 mm
18:48 6.0 °F /  -14.4 °C -5.1 °F /  -20.6 °C 1013.8 in /  34327.3 hPa WSW 2.6 mph /  4.2 km/h   45 % 0.0 in /  0 mm
18:53 6.0 °F /  -14.4 °C -4.8 °F /  -20.4 °C 1013.8 in /  34327.3 hPa WSW 2.3 mph /  3.7 km/h 2.3 mph /  3.7 km/h 46 % 0.0 in /  0 mm
18:58 5.9 °F /  -14.5 °C -4.8 °F /  -20.4 °C 1013.8 in /  34327.3 hPa WSW 3.7 mph /  6 km/h 3.7 mph /  6 km/h 46 % 0.0 in /  0 mm
19:03 5.8 °F /  -14.6 °C -4.9 °F /  -20.5 °C 1013.8 in /  34327.3 hPa WSW 3.7 mph /  6 km/h 3.7 mph /  6 km/h 46 % 0.0 in /  0 mm
19:08 5.6 °F /  -14.7 °C -5.1 °F /  -20.6 °C 1013.8 in /  34327.3 hPa Calm     46 % 0.0 in /  0 mm
19:13 5.3 °F /  -14.8 °C -5.4 °F /  -20.8 °C 1012.8 in /  34293.4 hPa WSW 1.9 mph /  3.1 km/h   46 % 0.0 in /  0 mm
19:18 5.0 °F /  -15 °C -5.7 °F /  -20.9 °C 1012.8 in /  34293.4 hPa SW 3.7 mph /  6 km/h 3.7 mph /  6 km/h 46 % 0.0 in /  0 mm
19:23 4.8 °F /  -15.1 °C -5.9 °F /  -21.1 °C 1012.8 in /  34293.4 hPa WSW 3.7 mph /  6 km/h 3.7 mph /  6 km/h 46 % 0.0 in /  0 mm
19:28 4.8 °F /  -15.1 °C -5.9 °F /  -21.1 °C 1013.8 in /  34327.3 hPa WSW 3.2 mph /  5.1 km/h 3.2 mph /  5.1 km/h 46 % 0.0 in /  0 mm
19:33 4.8 °F /  -15.1 °C -5.9 °F /  -21.1 °C 1013.8 in /  34327.3 hPa WSW 3.7 mph /  6 km/h 3.7 mph /  6 km/h 46 % 0.0 in /  0 mm
19:38 4.7 °F /  -15.2 °C -5.9 °F /  -21.1 °C 1013.8 in /  34327.3 hPa Calm     46 % 0.0 in /  0 mm
19:43 4.6 °F /  -15.2 °C -5.8 °F /  -21 °C 1012.8 in /  34293.4 hPa WSW 1.9 mph /  3.1 km/h 1.9 mph /  3.1 km/h 47 % 0.0 in /  0 mm
19:48 4.6 °F /  -15.2 °C -5.8 °F /  -21 °C 1012.8 in /  34293.4 hPa Calm     47 % 0.0 in /  0 mm
19:53 4.5 °F /  -15.3 °C -5.8 °F /  -21 °C 1012.8 in /  34293.4 hPa Calm     47 % 0.0 in /  0 mm
19:58 4.5 °F /  -15.3 °C -5.8 °F /  -21 °C 1012.8 in /  34293.4 hPa Calm     47 % 0.0 in /  0 mm
20:03 4.5 °F /  -15.3 °C -5.8 °F /  -21 °C 1012.8 in /  34293.4 hPa SW 1.9 mph /  3.1 km/h 1.9 mph /  3.1 km/h 47 % 0.0 in /  0 mm
20:08 4.5 °F /  -15.3 °C -5.8 °F /  -21 °C 1012.8 in /  34293.4 hPa SW 1.9 mph /  3.1 km/h   47 % 0.0 in /  0 mm
20:13 4.4 °F /  -15.3 °C -5.9 °F /  -21.1 °C 1013.8 in /  34327.3 hPa Calm     47 % 0.0 in /  0 mm
20:18 4.3 °F /  -15.4 °C -6.1 °F /  -21.2 °C 1013.8 in /  34327.3 hPa Calm     47 % 0.0 in /  0 mm
20:23 4.2 °F /  -15.4 °C -6.1 °F /  -21.2 °C 1013.8 in /  34327.3 hPa Calm     47 % 0.0 in /  0 mm
20:28 4.2 °F /  -15.4 °C -5.8 °F /  -21 °C 1013.8 in /  34327.3 hPa SW 1.9 mph /  3.1 km/h 1.9 mph /  3.1 km/h 48 % 0.0 in /  0 mm
20:33 4.1 °F /  -15.5 °C -6.2 °F /  -21.2 °C 1013.8 in /  34327.3 hPa Calm     47 % 0.0 in /  0 mm
20:38 4.2 °F /  -15.4 °C -6.1 °F /  -21.2 °C 1013.8 in /  34327.3 hPa Calm     47 % 0.0 in /  0 mm
20:43 4.2 °F /  -15.4 °C -6.1 °F /  -21.2 °C 1013.8 in /  34327.3 hPa Calm     47 % 0.0 in /  0 mm
20:48 4.2 °F /  -15.4 °C -6.1 °F /  -21.2 °C 1013.8 in /  34327.3 hPa Calm     47 % 0.0 in /  0 mm
20:53 4.2 °F /  -15.4 °C -6.1 °F /  -21.2 °C 1013.8 in /  34327.3 hPa Calm     47 % 0.0 in /  0 mm
20:58 4.3 °F /  -15.4 °C -6.3 °F /  -21.3 °C 1013.8 in /  34327.3 hPa Calm     46 % 0.0 in /  0 mm
21:03 4.3 °F /  -15.4 °C -6.3 °F /  -21.3 °C 1013.8 in /  34327.3 hPa ESE 4.2 mph /  6.8 km/h 4.2 mph /  6.8 km/h 46 % 0.0 in /  0 mm
21:08 3.8 °F /  -15.7 °C -6.5 °F /  -21.4 °C 1013.8 in /  34327.3 hPa ENE 5.6 mph /  9 km/h 5.6 mph /  9 km/h 47 % 0.0 in /  0 mm
21:13 3.6 °F /  -15.8 °C -6.4 °F /  -21.3 °C 1013.8 in /  34327.3 hPa ENE 2.6 mph /  4.2 km/h 2.6 mph /  4.2 km/h 48 % 0.0 in /  0 mm
21:18 3.6 °F /  -15.8 °C -6.4 °F /  -21.3 °C 1013.8 in /  34327.3 hPa NE 2.6 mph /  4.2 km/h   48 % 0.0 in /  0 mm
21:23 3.5 °F /  -15.8 °C -6.5 °F /  -21.4 °C 1013.8 in /  34327.3 hPa Calm     48 % 0.0 in /  0 mm
21:28 3.3 °F /  -15.9 °C -6.4 °F /  -21.3 °C 1013.8 in /  34327.3 hPa WNW 1.9 mph /  3.1 km/h 2.6 mph /  4.2 km/h 49 % 0.0 in /  0 mm
21:33 3.0 °F /  -16.1 °C -6.7 °F /  -21.5 °C 1013.8 in /  34327.3 hPa WSW 3.7 mph /  6 km/h 3.7 mph /  6 km/h 49 % 0.0 in /  0 mm
21:39 2.8 °F /  -16.2 °C -6.6 °F /  -21.4 °C 1013.8 in /  34327.3 hPa WSW 3.7 mph /  6 km/h 3.7 mph /  6 km/h 50 % 0.0 in /  0 mm
21:44 2.7 °F /  -16.3 °C -6.7 °F /  -21.5 °C 1013.8 in /  34327.3 hPa Calm     50 % 0.0 in /  0 mm
21:49 2.6 °F /  -16.3 °C -6.8 °F /  -21.6 °C 1013.8 in /  34327.3 hPa Calm     50 % 0.0 in /  0 mm
21:54 2.5 °F /  -16.4 °C -6.6 °F /  -21.4 °C 1013.8 in /  34327.3 hPa Calm     51 % 0.0 in /  0 mm
21:59 2.5 °F /  -16.4 °C -6.6 °F /  -21.4 °C 1014.8 in /  34361.1 hPa NNE 2.6 mph /  4.2 km/h 2.6 mph /  4.2 km/h 51 % 0.0 in /  0 mm
22:04 2.7 °F /  -16.3 °C -6.4 °F /  -21.3 °C 1014.8 in /  34361.1 hPa NNE 3.7 mph /  6 km/h 3.7 mph /  6 km/h 51 % 0.0 in /  0 mm
22:09 2.6 °F /  -16.3 °C -6.6 °F /  -21.4 °C 1014.8 in /  34361.1 hPa NNE 1.9 mph /  3.1 km/h 1.9 mph /  3.1 km/h 51 % 0.0 in /  0 mm
22:14 2.5 °F /  -16.4 °C -6.6 °F /  -21.4 °C 1014.8 in /  34361.1 hPa NNW 3.2 mph /  5.1 km/h 3.2 mph /  5.1 km/h 51 % 0.0 in /  0 mm
22:19 2.4 °F /  -16.4 °C -6.7 °F /  -21.5 °C 1014.8 in /  34361.1 hPa Calm     51 % 0.0 in /  0 mm
22:24 2.5 °F /  -16.4 °C -6.6 °F /  -21.4 °C 1014.8 in /  34361.1 hPa WSW 3.9 mph /  6.3 km/h 3.9 mph /  6.3 km/h 51 % 0.0 in /  0 mm
22:29 2.2 °F /  -16.6 °C -6.9 °F /  -21.6 °C 1014.8 in /  34361.1 hPa WSW 3.9 mph /  6.3 km/h 3.9 mph /  6.3 km/h 51 % 0.0 in /  0 mm
22:34 2.1 °F /  -16.6 °C -7.0 °F /  -21.7 °C 1014.8 in /  34361.1 hPa WSW 4.2 mph /  6.8 km/h 4.2 mph /  6.8 km/h 51 % 0.0 in /  0 mm
22:39 2.2 °F /  -16.6 °C -6.9 °F /  -21.6 °C 1014.8 in /  34361.1 hPa SW 4.2 mph /  6.8 km/h 4.2 mph /  6.8 km/h 51 % 0.0 in /  0 mm
22:44 2.5 °F /  -16.4 °C -6.6 °F /  -21.4 °C 1014.8 in /  34361.1 hPa WSW 3.9 mph /  6.3 km/h 3.9 mph /  6.3 km/h 51 % 0.0 in /  0 mm
22:49 2.9 °F /  -16.2 °C -6.3 °F /  -21.3 °C 1014.8 in /  34361.1 hPa WSW 5.6 mph /  9 km/h 5.6 mph /  9 km/h 51 % 0.0 in /  0 mm
22:54 3.1 °F /  -16.1 °C -6.1 °F /  -21.2 °C 1014.8 in /  34361.1 hPa WNW 2.3 mph /  3.7 km/h   51 % 0.0 in /  0 mm
22:59 3.1 °F /  -16.1 °C -6.1 °F /  -21.2 °C 1015.8 in /  34395 hPa WNW 3.7 mph /  6 km/h 3.7 mph /  6 km/h 51 % 0.0 in /  0 mm
23:04 3.2 °F /  -16 °C -6.0 °F /  -21.1 °C 1015.8 in /  34395 hPa West 3.7 mph /  6 km/h 3.7 mph /  6 km/h 51 % 0.0 in /  0 mm
23:09 3.3 °F /  -15.9 °C -5.9 °F /  -21.1 °C 1015.8 in /  34395 hPa WNW 1.9 mph /  3.1 km/h   51 % 0.0 in /  0 mm
23:14 3.2 °F /  -16 °C -6.0 °F /  -21.1 °C 1014.8 in /  34361.1 hPa WNW 1.9 mph /  3.1 km/h   51 % 0.0 in /  0 mm
23:19 3.1 °F /  -16.1 °C -6.1 °F /  -21.2 °C 1014.8 in /  34361.1 hPa West 1.9 mph /  3.1 km/h 1.9 mph /  3.1 km/h 51 % 0.0 in /  0 mm
23:24 3.1 °F /  -16.1 °C -6.1 °F /  -21.2 °C 1014.8 in /  34361.1 hPa West 3.2 mph /  5.1 km/h 3.2 mph /  5.1 km/h 51 % 0.0 in /  0 mm
23:29 3.0 °F /  -16.1 °C -6.2 °F /  -21.2 °C 1014.8 in /  34361.1 hPa WSW 1.9 mph /  3.1 km/h 1.9 mph /  3.1 km/h 51 % 0.0 in /  0 mm
23:34 2.9 °F /  -16.2 °C -6.3 °F /  -21.3 °C 1014.8 in /  34361.1 hPa West 1.9 mph /  3.1 km/h 1.9 mph /  3.1 km/h 51 % 0.0 in /  0 mm
23:39 3.0 °F /  -16.1 °C -6.2 °F /  -21.2 °C 1014.8 in /  34361.1 hPa WSW 3.9 mph /  6.3 km/h 3.9 mph /  6.3 km/h 51 % 0.0 in /  0 mm
23:44 3.0 °F /  -16.1 °C -6.2 °F /  -21.2 °C 1015.8 in /  34395 hPa WSW 3.7 mph /  6 km/h 3.7 mph /  6 km/h 51 % 0.0 in /  0 mm
23:49 3.1 °F /  -16.1 °C -6.1 °F /  -21.2 °C 1015.8 in /  34395 hPa West 3.7 mph /  6 km/h 3.9 mph /  6.3 km/h 51 % 0.0 in /  0 mm
23:54 3.0 °F /  -16.1 °C -6.4 °F /  -21.3 °C 1015.8 in /  34395 hPa WNW 3.7 mph /  6 km/h   50 % 0.0 in /  0 mm
23:56 3.0 °F /  -16.1 °C -6.4 °F /  -21.3 °C 1015.8 in /  34395 hPa West 3.7 mph /  6 km/h   50 % 0.0 in /  0 mm
Meteo Sesrovires
Elogis d' Weather Underground - 2 mb

Guio original per  Jim McMurry - jmcmurry@mwt.net Adaptat per a la plantilla per  Wim van der Kuil - Leuven-Template.eu

Trobareu la nostra informacio del temps tambe a:

Weather Underground

AWEKAS